Time;durP1;ratioP1;P1;durP2;ratioP2;P2;SDS_P1;SDS_P2;PMS_P1;PMS_P2;Temp;Humidity;BMP_temperature;BMP_pressure;BME280_temperature;BME280_humidity;BME280_pressure;Samples;Min_cycle;Max_cycle;Signal;HPM_P1;HPM_P2
2022/01/27 00:02:49;;;;;;;;;49.40;43.80;;;;;4.39;67.81;102733.84;5055828;28;45911;-59
2022/01/27 00:05:24;;;;;;;;;47.00;39.80;;;;;4.40;67.82;102726.53;5057231;28;45295;-60
2022/01/27 00:10:49;;;;;;;;;51.80;40.60;;;;;4.37;67.43;102727.63;5053684;28;45435;-55
2022/01/27 00:13:16;;;;;;;;;52.20;44.40;;;;;4.36;68.09;102716.91;5055689;28;45540;-55
2022/01/27 00:15:43;;;;;;;;;52.40;42.20;;;;;4.36;68.22;102725.06;5056877;28;45609;-52
2022/01/27 00:18:14;;;;;;;;;49.00;40.40;;;;;4.36;68.07;102720.47;5057614;28;45361;-54
2022/01/27 00:20:40;;;;;;;;;53.50;43.00;;;;;4.37;68.56;102716.75;5056837;28;45595;-55
2022/01/27 00:23:06;;;;;;;;;61.75;44.75;;;;;4.40;68.82;102716.53;5055884;28;46116;-54
2022/01/27 00:25:31;;;;;;;;;52.00;37.75;;;;;4.40;68.33;102708.38;5056889;28;45616;-55
2022/01/27 00:27:57;;;;;;;;;55.50;42.25;;;;;4.39;68.46;102700.31;5056009;28;45521;-55
2022/01/27 00:30:23;;;;;;;;;54.50;45.00;;;;;4.29;67.93;102678.44;5056074;28;45327;-51
2022/01/27 00:32:48;;;;;;;;;52.75;41.50;;;;;4.49;68.53;102706.78;5055179;28;46914;-57
2022/01/27 00:35:13;;;;;;;;;46.50;40.75;;;;;4.44;68.29;102696.25;5056651;28;45404;-55
2022/01/27 00:37:39;;;;;;;;;57.50;43.75;;;;;4.47;67.93;102701.44;5057016;28;45328;-55
2022/01/27 00:40:05;;;;;;;;;52.75;42.00;;;;;4.51;68.43;102701.19;5056498;28;45324;-53
2022/01/27 00:42:32;;;;;;;;;40.00;36.60;;;;;4.53;67.63;102696.50;5055594;28;46653;-57
2022/01/27 00:44:58;;;;;;;;;50.20;41.60;;;;;4.56;68.22;102693.53;5055187;28;45447;-56
2022/01/27 00:47:24;;;;;;;;;45.60;42.20;;;;;4.50;67.90;102680.44;5055669;28;45478;-57
2022/01/27 00:49:49;;;;;;;;;52.25;40.75;;;;;4.44;67.53;102669.06;5056742;28;45357;-52
2022/01/27 00:52:23;;;;;;;;;48.50;42.50;;;;;4.48;67.58;102667.81;5055491;28;45436;-56
2022/01/27 00:54:50;;;;;;;;;57.60;43.00;;;;;4.52;68.00;102678.44;5040010;28;45696;-52
2022/01/27 00:57:42;;;;;;;;;51.60;44.40;;;;;4.43;67.50;102661.03;5057249;28;45343;-53
2022/01/27 01:00:09;;;;;;;;;60.40;43.60;;;;;4.49;68.25;102674.13;5056843;28;45278;-54
2022/01/27 01:07:39;;;;;;;;;52.50;42.75;;;;;4.52;68.65;102664.84;5056902;28;45392;-58
2022/01/27 01:15:23;;;;;;;;;54.75;43.50;;;;;4.44;68.50;102655.44;5049989;28;45552;-57
2022/01/27 01:18:23;;;;;;;;;57.60;44.60;;;;;4.49;68.35;102663.25;5054796;28;45342;-54
2022/01/27 01:31:49;;;;;;;;;67.25;47.25;;;;;4.38;68.63;102639.63;5056339;28;45321;-54
2022/01/27 01:36:49;;;;;;;;;59.00;46.50;;;;;4.41;68.73;102657.56;5055729;28;45322;-57
2022/01/27 01:39:14;;;;;;;;;67.75;50.00;;;;;4.33;69.07;102636.44;5054520;28;45486;-53
2022/01/27 01:41:41;;;;;;;;;62.50;46.50;;;;;4.39;69.29;102646.81;5054653;28;45389;-57
2022/01/27 01:44:06;;;;;;;;;62.00;47.25;;;;;4.37;68.96;102643.34;5054686;28;46468;-54
2022/01/27 01:46:33;;;;;;;;;65.00;45.25;;;;;4.39;69.57;102635.06;5054314;28;45365;-53
2022/01/27 01:48:59;;;;;;;;;62.25;48.25;;;;;4.19;69.92;102607.66;5054806;28;45383;-55
2022/01/27 01:51:26;;;;;;;;;60.00;44.50;;;;;4.42;70.01;102651.13;5055001;28;45173;-55
2022/01/27 01:53:52;;;;;;;;;69.25;52.00;;;;;4.40;69.86;102637.69;5054480;28;47938;-55
2022/01/27 01:56:18;;;;;;;;;68.25;51.50;;;;;4.39;69.92;102637.78;5055238;28;45419;-56
2022/01/27 01:58:43;;;;;;;;;69.50;48.25;;;;;4.18;69.48;102595.91;5056028;28;45292;-57
2022/01/27 02:01:08;;;;;;;;;69.25;51.75;;;;;4.35;69.32;102629.03;5054734;28;45420;-56
2022/01/27 02:03:34;;;;;;;;;73.00;51.00;;;;;4.37;70.13;102616.16;5054019;28;46024;-52
2022/01/27 02:06:00;;;;;;;;;60.75;46.25;;;;;4.21;69.38;102583.91;5087970;27;45452;-55
2022/01/27 02:19:23;;;;;;;;;64.25;47.25;;;;;4.32;70.54;102599.38;5054681;28;45320;-52
2022/01/27 02:21:53;;;;;;;;;69.25;50.00;;;;;4.37;69.68;102601.72;5055510;28;45501;-53
2022/01/27 02:24:19;;;;;;;;;64.50;49.75;;;;;4.32;69.80;102605.66;5053834;28;45987;-58
2022/01/27 02:26:47;;;;;;;;;66.80;51.00;;;;;4.35;70.48;102596.41;5054807;28;45619;-58
2022/01/27 02:29:13;;;;;;;;;70.20;55.00;;;;;4.17;70.33;102571.56;5055113;28;45767;-52
2022/01/27 02:31:39;;;;;;;;;54.50;44.00;;;;;4.37;70.54;102591.69;5055550;28;45387;-55
2022/01/27 02:34:05;;;;;;;;;66.00;49.50;;;;;4.38;70.52;102601.56;5054744;28;46830;-55
2022/01/27 02:36:32;;;;;;;;;65.60;50.00;;;;;4.38;69.80;102598.00;5055177;28;45584;-56
2022/01/27 02:38:57;;;;;;;;;65.20;48.60;;;;;4.39;70.63;102594.28;5055254;28;45374;-51
2022/01/27 02:41:23;;;;;;;;;65.25;44.00;;;;;4.38;69.74;102596.13;5054158;28;45465;-58
2022/01/27 02:43:48;;;;;;;;;59.00;45.50;;;;;4.31;70.07;102582.19;5019895;28;46456;-57
2022/01/27 02:46:22;;;;;;;;;67.00;44.25;;;;;4.37;69.80;102582.69;5054987;28;45367;-52
2022/01/27 02:48:47;;;;;;;;;63.60;46.80;;;;;4.18;70.23;102551.56;5054832;28;45353;-56
2022/01/27 02:51:13;;;;;;;;;45.25;34.00;;;;;4.32;70.43;102578.47;5054801;28;45325;-56
2022/01/27 02:53:38;;;;;;;;;65.25;51.25;;;;;4.32;69.69;102574.91;5053188;28;48526;-54
2022/01/27 02:56:04;;;;;;;;;63.25;49.50;;;;;4.31;69.38;102575.88;5053302;28;45681;-57
2022/01/27 02:58:30;;;;;;;;;60.00;45.25;;;;;4.30;70.40;102576.88;5054609;28;45432;-55
2022/01/27 03:00:55;;;;;;;;;65.50;48.75;;;;;4.26;69.85;102564.53;5054651;28;45227;-52
2022/01/27 03:03:21;;;;;;;;;69.25;49.50;;;;;4.35;70.47;102580.09;5041505;28;47163;-54
2022/01/27 03:05:46;;;;;;;;;69.50;50.50;;;;;4.35;69.54;102574.66;5033158;28;45347;-55
2022/01/27 03:08:12;;;;;;;;;56.00;45.75;;;;;4.33;70.70;102571.19;5050854;28;45325;-57
2022/01/27 03:10:44;;;;;;;;;59.25;48.50;;;;;4.34;70.78;102576.47;5052080;28;45390;-53
2022/01/27 03:13:09;;;;;;;;;61.00;47.25;;;;;4.38;70.45;102571.66;5052904;28;45903;-55
2022/01/27 03:15:35;;;;;;;;;63.75;49.00;;;;;4.24;69.64;102542.03;5053293;28;45308;-57
2022/01/27 03:18:00;;;;;;;;;62.75;48.75;;;;;4.41;69.77;102559.66;5051757;28;45364;-55
2022/01/27 03:20:33;;;;;;;;;55.25;44.50;;;;;3.98;70.30;102496.97;5052672;28;45353;-54
2022/01/27 03:23:01;;;;;;;;;66.20;43.80;;;;;4.29;70.49;102543.41;5050516;28;45450;-55
2022/01/27 03:25:27;;;;;;;;;56.00;45.80;;;;;4.41;70.49;102571.41;5052723;28;45250;-54
2022/01/27 03:27:52;;;;;;;;;66.50;49.50;;;;;3.91;70.20;102482.16;5053730;28;45274;-54
2022/01/27 03:30:18;;;;;;;;;62.75;47.25;;;;;4.20;69.70;102527.81;5087132;27;45525;-55
2022/01/27 03:32:44;;;;;;;;;56.50;47.25;;;;;4.20;70.15;102531.41;5086551;27;45439;-54
2022/01/27 03:35:10;;;;;;;;;62.80;46.20;;;;;4.39;70.01;102569.81;5053513;28;45487;-55
2022/01/27 03:37:35;;;;;;;;;63.50;48.25;;;;;4.34;70.06;102568.31;5054240;28;45428;-50
2022/01/27 03:40:01;;;;;;;;;47.50;37.00;;;;;4.34;70.35;102567.47;5054421;28;45315;-53
2022/01/27 03:42:27;;;;;;;;;63.25;47.25;;;;;4.34;69.75;102570.19;5052705;28;45391;-58
2022/01/27 03:44:53;;;;;;;;;49.40;42.00;;;;;4.34;70.42;102568.31;5053871;28;45402;-58
2022/01/27 03:47:18;;;;;;;;;57.75;45.75;;;;;4.24;70.32;102551.06;5054084;28;45452;-55
2022/01/27 03:49:44;;;;;;;;;63.75;48.75;;;;;4.30;70.31;102563.28;5054177;28;45519;-60
2022/01/27 03:52:09;;;;;;;;;63.75;48.50;;;;;4.31;70.00;102559.56;5053956;28;45529;-54
2022/01/27 03:54:35;;;;;;;;;69.00;45.00;;;;;4.33;70.49;102565.75;5053034;28;45396;-57
2022/01/27 03:57:00;;;;;;;;;66.50;48.75;;;;;4.33;69.96;102561.16;5054470;28;45370;-57
2022/01/27 03:59:26;;;;;;;;;63.50;45.75;;;;;4.30;69.71;102566.88;4947053;27;45496;-55
2022/01/27 04:01:53;;;;;;;;;53.50;45.50;;;;;4.35;70.40;102561.06;5051699;28;47258;-51
2022/01/27 04:04:18;;;;;;;;;55.75;46.25;;;;;4.32;70.40;102564.03;5052457;28;45367;-57
2022/01/27 04:06:44;;;;;;;;;58.75;44.75;;;;;4.35;70.59;102561.06;5054147;28;45416;-56
2022/01/27 04:09:10;;;;;;;;;59.75;45.25;;;;;4.31;70.53;102551.41;5045498;27;45459;-57
2022/01/27 04:11:37;;;;;;;;;52.80;41.00;;;;;4.35;70.07;102561.06;5048861;28;46814;-57
2022/01/27 04:14:03;;;;;;;;;56.40;45.20;;;;;3.65;69.80;102442.56;5053057;28;45413;-58
2022/01/27 04:16:28;;;;;;;;;65.50;49.75;;;;;4.39;70.21;102562.53;5056766;28;45396;-57
2022/01/27 04:18:54;;;;;;;;;60.75;43.00;;;;;4.38;69.96;102557.22;5057525;28;45359;-52
2022/01/27 04:21:20;;;;;;;;;57.25;43.50;;;;;4.40;69.97;102550.66;5057021;28;45394;-56
2022/01/27 04:23:45;;;;;;;;;59.00;45.50;;;;;4.31;69.93;102535.09;5056742;28;45409;-59
2022/01/27 04:26:14;;;;;;;;;58.00;44.75;;;;;4.40;69.58;102561.53;5057332;28;45329;-57
2022/01/27 04:28:40;;;;;;;;;64.25;41.50;;;;;4.36;69.76;102551.06;5057168;28;45392;-59
2022/01/27 04:31:08;;;;;;;;;64.50;47.50;;;;;4.40;70.31;102561.53;5056607;28;46376;-55
2022/01/27 04:33:35;;;;;;;;;57.40;44.40;;;;;4.40;70.51;102561.53;5056631;28;45462;-59
2022/01/27 04:36:07;;;;;;;;;55.80;41.60;;;;;4.40;69.77;102563.38;5055513;28;45374;-59
2022/01/27 04:46:05;;;;;;;;;58.75;44.50;;;;;3.91;70.21;102495.75;5056621;28;45356;-51
2022/01/27 04:48:36;;;;;;;;;58.50;43.25;;;;;4.29;70.67;102559.72;5056795;28;45464;-55
2022/01/27 04:51:06;;;;;;;;;51.60;42.00;;;;;4.33;70.88;102555.72;5056287;28;45791;-51
2022/01/27 04:53:40;;;;;;;;;60.00;45.20;;;;;4.33;70.42;102554.88;5056356;28;45331;-62
2022/01/27 04:56:10;;;;;;;;;60.40;46.80;;;;;4.31;70.07;102557.72;5055276;28;45447;-59
2022/01/27 04:58:36;;;;;;;;;54.50;42.00;;;;;4.29;70.65;102554.28;5056633;28;45730;-56
2022/01/27 05:01:03;;;;;;;;;56.25;46.00;;;;;4.33;70.72;102541.28;5056359;28;45822;-57
2022/01/27 05:03:55;;;;;;;;;52.20;44.80;;;;;4.35;69.96;102558.34;5055966;28;45717;-57
2022/01/27 05:06:15;;;;;;;;;52.60;44.00;;;;;4.32;70.82;102545.84;5057604;27;45477;-59
2022/01/27 05:08:42;;;;;;;;;63.25;44.75;;;;;3.65;70.31;102436.25;5056546;28;45428;-59
2022/01/27 05:11:17;;;;;;;;;56.20;44.20;;;;;4.20;69.67;102534.13;5055871;28;45913;-56
2022/01/27 05:13:55;;;;;;;;;61.40;45.80;;;;;4.27;70.56;102545.34;5055997;28;45375;-55
2022/01/27 05:16:21;;;;;;;;;63.00;45.20;;;;;4.33;70.54;102552.16;5056610;28;45311;-56
2022/01/27 05:18:47;;;;;;;;;47.00;42.00;;;;;4.36;70.02;102534.75;5056045;28;45415;-55
2022/01/27 05:21:12;;;;;;;;;55.75;40.50;;;;;4.36;70.36;102540.19;5054792;28;46908;-57
2022/01/27 05:23:38;;;;;;;;;64.25;49.75;;;;;4.37;70.00;102544.63;5055693;28;45351;-56
2022/01/27 05:26:03;;;;;;;;;65.50;43.50;;;;;4.17;69.73;102509.06;5056006;28;45302;-55
2022/01/27 05:28:29;;;;;;;;;60.00;43.00;;;;;4.39;70.45;102540.78;5055989;28;45305;-55
2022/01/27 05:30:54;;;;;;;;;59.00;44.50;;;;;4.40;69.82;102539.78;5056011;28;46005;-54
2022/01/27 05:33:20;;;;;;;;;56.75;46.75;;;;;4.40;69.75;102534.34;5055916;28;45531;-58
2022/01/27 05:35:46;;;;;;;;;53.25;44.50;;;;;4.18;70.31;102503.47;5055696;28;45896;-56
2022/01/27 05:38:15;;;;;;;;;51.00;43.75;;;;;4.38;70.07;102536.31;5054424;28;45330;-52
2022/01/27 05:40:41;;;;;;;;;63.80;44.40;;;;;4.40;70.16;102545.22;5055714;28;46280;-58
2022/01/27 05:43:06;;;;;;;;;48.00;39.50;;;;;4.38;69.59;102535.47;5054304;28;45367;-52
2022/01/27 05:45:32;;;;;;;;;58.75;44.00;;;;;4.41;69.68;102540.63;5049496;28;45298;-55
2022/01/27 05:47:58;;;;;;;;;62.75;45.25;;;;;4.37;69.41;102528.31;5038118;28;45702;-56
2022/01/27 05:50:23;;;;;;;;;53.00;43.75;;;;;4.39;70.28;102531.75;5049406;28;46116;-52
2022/01/27 05:52:49;;;;;;;;;52.25;39.00;;;;;4.40;69.65;102522.59;5055334;28;45347;-57
2022/01/27 05:55:14;;;;;;;;;54.50;41.25;;;;;4.22;70.47;102503.25;5055877;28;45492;-55
2022/01/27 05:57:40;;;;;;;;;53.00;43.50;;;;;4.36;70.32;102529.31;5056048;28;45551;-56
2022/01/27 06:00:07;;;;;;;;;58.25;40.50;;;;;4.29;69.67;102510.78;5053737;28;46065;-55
2022/01/27 06:02:32;;;;;;;;;51.00;42.00;;;;;4.41;70.23;102525.19;5055458;28;45419;-55
2022/01/27 06:04:58;;;;;;;;;50.00;41.50;;;;;4.39;70.13;102526.31;5054060;28;45378;-59
2022/01/27 06:07:24;;;;;;;;;49.75;37.00;;;;;4.41;69.20;102533.34;5054264;28;45398;-56
2022/01/27 06:09:50;;;;;;;;;58.00;40.25;;;;;4.42;69.48;102528.75;5055137;28;45560;-54
2022/01/27 06:12:15;;;;;;;;;57.80;43.60;;;;;4.26;69.90;102515.59;5055075;28;45575;-55
2022/01/27 06:14:41;;;;;;;;;55.25;45.00;;;;;4.43;69.90;102555.00;5053992;28;45342;-52
2022/01/27 06:17:06;;;;;;;;;51.50;43.00;;;;;4.33;69.97;102538.56;5054046;28;45469;-58
2022/01/27 06:19:32;;;;;;;;;50.00;41.25;;;;;4.39;70.02;102548.94;5053957;28;47271;-58
2022/01/27 06:21:57;;;;;;;;;46.50;40.00;;;;;4.38;69.96;102557.22;5055095;28;45263;-56
2022/01/27 06:24:23;;;;;;;;;45.75;36.50;;;;;4.37;70.06;102556.34;5053576;28;45239;-54
2022/01/27 06:26:48;;;;;;;;;61.75;47.25;;;;;4.40;69.65;102555.22;5055375;28;45270;-55
2022/01/27 06:29:14;;;;;;;;;52.00;41.00;;;;;4.37;69.44;102559.06;5054707;28;46833;-57
2022/01/27 06:31:39;;;;;;;;;50.00;41.25;;;;;4.18;69.84;102514.34;5055189;28;45382;-56
2022/01/27 06:34:05;;;;;;;;;57.25;41.25;;;;;4.39;70.52;102554.38;5054777;28;45389;-57
2022/01/27 06:36:30;;;;;;;;;52.00;44.75;;;;;4.43;69.46;102557.72;5062537;28;45504;-57
2022/01/27 06:38:56;;;;;;;;;57.00;44.25;;;;;4.44;69.54;102568.44;5069574;28;47518;-54
2022/01/27 06:41:21;;;;;;;;;46.25;41.75;;;;;4.44;69.82;102563.00;5054931;28;45379;-54
2022/01/27 06:43:47;;;;;;;;;53.75;38.25;;;;;4.43;69.97;102565.88;5054941;28;45436;-59
2022/01/27 06:46:12;;;;;;;;;53.50;39.75;;;;;4.45;69.45;102567.47;5055223;28;45701;-54
2022/01/27 06:48:38;;;;;;;;;34.50;27.25;;;;;4.45;69.77;102567.47;5055033;28;46311;-54
2022/01/27 06:51:05;;;;;;;;;54.50;41.00;;;;;4.46;69.91;102558.31;5054750;28;45373;-56
2022/01/27 06:53:30;;;;;;;;;48.60;40.60;;;;;4.46;70.29;102557.44;5054587;28;45266;-53
2022/01/27 06:55:56;;;;;;;;;39.25;34.00;;;;;4.50;69.40;102558.06;5055281;28;45167;-53
2022/01/27 06:58:22;;;;;;;;;56.00;41.25;;;;;4.50;68.86;102561.66;5054902;28;45523;-58
2022/01/27 07:00:47;;;;;;;;;57.75;42.50;;;;;4.52;69.76;102569.66;5053267;28;45370;-57
2022/01/27 07:03:13;;;;;;;;;38.75;32.50;;;;;4.48;69.35;102569.91;5055137;28;45446;-54
2022/01/27 07:05:40;;;;;;;;;45.60;36.80;;;;;4.44;69.40;102567.59;5054830;28;45488;-52
2022/01/27 07:08:05;;;;;;;;;47.00;41.60;;;;;4.43;69.95;102568.59;5054521;28;46922;-56
2022/01/27 07:10:31;;;;;;;;;54.50;38.50;;;;;4.29;69.37;102545.25;5054251;28;45447;-54
2022/01/27 07:12:56;;;;;;;;;52.00;39.50;;;;;4.46;69.63;102579.19;5054915;28;45829;-57
2022/01/27 07:15:22;;;;;;;;;39.25;35.00;;;;;4.24;69.20;102539.31;5054532;28;45444;-56
2022/01/27 07:17:47;;;;;;;;;43.50;40.50;;;;;4.40;69.02;102561.53;5052901;28;45892;-55
2022/01/27 07:20:13;;;;;;;;;41.00;31.50;;;;;4.44;69.64;102571.16;5054443;28;45361;-54
2022/01/27 07:22:38;;;;;;;;;55.00;42.75;;;;;4.50;69.17;102579.81;5054454;28;45388;-59
2022/01/27 07:25:05;;;;;;;;;48.00;41.25;;;;;4.52;69.79;102583.25;5070056;28;45310;-58
2022/01/27 07:27:31;;;;;;;;;40.60;34.60;;;;;4.38;69.66;102554.50;5053747;28;45444;-54
2022/01/27 07:29:57;;;;;;;;;59.60;43.60;;;;;4.50;69.31;102567.09;5054207;28;45397;-54
2022/01/27 07:32:23;;;;;;;;;48.75;43.75;;;;;4.50;68.89;102577.97;5052954;28;45450;-54
2022/01/27 07:34:48;;;;;;;;;51.25;42.00;;;;;4.51;69.02;102576.09;5024140;28;45377;-56
2022/01/27 07:37:14;;;;;;;;;48.00;41.75;;;;;4.54;69.93;102584.00;5054125;28;46346;-54
2022/01/27 07:39:39;;;;;;;;;51.25;42.00;;;;;4.56;69.25;102571.16;5054081;28;45365;-58
2022/01/27 07:42:05;;;;;;;;;46.75;42.75;;;;;4.59;69.25;102566.31;5054059;28;45446;-56
2022/01/27 07:44:30;;;;;;;;;53.75;40.75;;;;;4.53;69.19;102546.94;5054098;28;45467;-54
2022/01/27 07:46:56;;;;;;;;;46.00;35.25;;;;;4.36;69.92;102534.75;5053820;28;45483;-56
2022/01/27 07:49:22;;;;;;;;;36.50;29.75;;;;;4.50;69.36;102549.88;5086592;27;45493;-56
2022/01/27 07:51:47;;;;;;;;;51.75;44.50;;;;;4.57;69.15;102564.72;5056350;28;45281;-53
2022/01/27 07:54:13;;;;;;;;;48.00;40.75;;;;;4.59;69.09;102563.59;5058110;28;45749;-58
2022/01/27 07:56:38;;;;;;;;;52.75;42.25;;;;;4.57;69.16;102573.75;5090021;27;47480;-56
2022/01/27 07:59:04;;;;;;;;;51.00;40.00;;;;;4.60;69.86;102573.47;5048255;28;46027;-58
2022/01/27 08:01:29;;;;;;;;;55.00;42.50;;;;;4.63;69.56;102568.78;5024235;28;46061;-59
2022/01/27 08:03:55;;;;;;;;;47.25;38.50;;;;;4.61;69.27;102566.19;5039838;28;45658;-59
2022/01/27 08:06:21;;;;;;;;;42.75;33.50;;;;;4.62;68.71;102573.34;5051659;28;45740;-63
2022/01/27 08:08:47;;;;;;;;;42.75;37.00;;;;;4.59;69.89;102576.34;5051657;28;45523;-60
2022/01/27 08:11:13;;;;;;;;;57.20;42.80;;;;;4.50;69.55;102561.66;5035178;28;45498;-61
2022/01/27 08:13:39;;;;;;;;;42.25;37.50;;;;;4.51;69.24;102565.22;5052030;28;45434;-60
2022/01/27 08:16:05;;;;;;;;;45.40;40.20;;;;;4.43;69.00;102553.13;5050045;28;45487;-59
2022/01/27 08:18:30;;;;;;;;;46.50;41.00;;;;;4.53;69.31;102571.41;5052710;28;45807;-60
2022/01/27 08:20:56;;;;;;;;;45.25;38.50;;;;;4.44;69.35;102564.88;5053095;28;45534;-59
2022/01/27 08:23:21;;;;;;;;;55.00;40.50;;;;;4.54;69.52;102584.00;5035055;28;45366;-61
2022/01/27 08:25:52;;;;;;;;;54.50;43.00;;;;;4.51;69.19;102570.66;5052552;28;46025;-55
2022/01/27 08:31:06;;;;;;;;;48.80;40.00;;;;;4.33;69.84;102555.72;5049478;28;45988;-60
2022/01/27 08:33:32;;;;;;;;;51.75;38.75;;;;;4.56;68.96;102588.34;5053184;28;45433;-59
2022/01/27 08:36:01;;;;;;;;;51.60;41.40;;;;;4.58;69.48;102574.59;5027867;28;46255;-58
2022/01/27 08:38:27;;;;;;;;;48.60;39.00;;;;;4.52;69.52;102570.53;5052793;28;45466;-56
2022/01/27 08:40:53;;;;;;;;;46.40;36.80;;;;;4.65;70.02;102585.84;5051460;28;45377;-60
2022/01/27 08:43:18;;;;;;;;;41.75;34.25;;;;;4.69;69.53;102593.63;5051701;28;45710;-59
2022/01/27 08:45:45;;;;;;;;;50.50;40.50;;;;;4.70;69.64;102592.63;5052500;28;45365;-58
2022/01/27 08:48:13;;;;;;;;;48.00;41.40;;;;;4.71;69.73;102583.47;5052356;28;45464;-60
2022/01/27 08:50:39;;;;;;;;;50.40;42.60;;;;;4.73;68.91;102584.22;5051309;28;45471;-60
2022/01/27 08:53:04;;;;;;;;;49.00;42.25;;;;;4.74;69.36;102583.22;5050256;28;45911;-57
2022/01/27 08:55:30;;;;;;;;;58.50;41.25;;;;;4.86;68.58;102589.47;5052240;28;45627;-56
2022/01/27 08:57:55;;;;;;;;;60.50;45.00;;;;;4.88;69.35;102592.09;5052658;28;45875;-57
2022/01/27 09:00:21;;;;;;;;;48.50;39.75;;;;;4.62;69.19;102540.72;5042690;28;45367;-59
2022/01/27 09:02:46;;;;;;;;;53.00;41.25;;;;;4.82;68.51;102584.44;5052793;28;45310;-57
2022/01/27 09:05:13;;;;;;;;;44.00;40.75;;;;;4.83;69.43;102578.88;5049563;28;45403;-59
2022/01/27 09:07:39;;;;;;;;;47.60;35.20;;;;;4.81;69.24;102563.66;5052649;28;45853;-57
2022/01/27 09:10:05;;;;;;;;;53.00;44.75;;;;;4.71;69.32;102536.38;5051434;28;45487;-55
2022/01/27 09:12:31;;;;;;;;;45.40;39.80;;;;;4.85;69.53;102552.38;5052733;28;45525;-53
2022/01/27 09:14:57;;;;;;;;;48.00;34.75;;;;;4.94;68.46;102560.75;5052589;28;45452;-58
2022/01/27 09:17:26;;;;;;;;;47.00;39.80;;;;;4.95;68.86;102555.19;5050745;28;45874;-59
2022/01/27 09:19:51;;;;;;;;;52.20;39.80;;;;;5.04;68.60;102548.09;5052782;28;45477;-54
2022/01/27 09:22:19;;;;;;;;;57.75;39.50;;;;;5.09;68.82;102555.88;5052644;28;45570;-56
2022/01/27 09:24:54;;;;;;;;;39.00;37.60;;;;;5.10;69.25;102549.44;5052267;28;45820;-56
2022/01/27 09:27:19;;;;;;;;;56.00;42.40;;;;;4.94;68.08;102528.97;5052301;28;45768;-58
2022/01/27 09:29:47;;;;;;;;;60.50;43.50;;;;;5.02;68.92;102528.34;5051152;28;45880;-61
2022/01/27 09:32:13;;;;;;;;;51.00;42.25;;;;;5.18;68.80;102549.63;5051127;28;45647;-61
2022/01/27 09:34:38;;;;;;;;;51.25;38.00;;;;;5.18;68.52;102546.06;5020436;28;45841;-56
2022/01/27 09:37:04;;;;;;;;;57.00;44.25;;;;;5.27;67.75;102559.75;5040330;28;45482;-61
2022/01/27 09:39:30;;;;;;;;;43.25;39.00;;;;;5.27;68.59;102554.31;5067642;28;45718;-59
2022/01/27 09:41:57;;;;;;;;;64.25;42.75;;;;;5.32;67.99;102556.63;5051263;28;45448;-56
2022/01/27 09:44:27;;;;;;;;;35.00;31.20;;;;;5.27;68.73;102543.41;5052037;28;46722;-52
2022/01/27 09:46:55;;;;;;;;;55.80;43.00;;;;;5.38;67.84;102536.16;5052376;28;45456;-58
2022/01/27 09:49:30;;;;;;;;;48.00;35.20;;;;;5.51;67.50;102547.69;5050550;28;45491;-57
2022/01/27 09:51:56;;;;;;;;;59.00;41.00;;;;;5.32;67.72;102515.78;5052309;28;45394;-57
2022/01/27 09:54:21;;;;;;;;;50.25;40.25;;;;;5.60;68.20;102553.38;5048857;28;45493;-61
2022/01/27 09:56:47;;;;;;;;;45.00;39.00;;;;;5.58;67.83;102539.88;5034623;28;45371;-54
2022/01/27 09:59:12;;;;;;;;;51.25;39.25;;;;;5.46;67.42;102513.72;5055026;28;45302;-55
2022/01/27 10:01:41;;;;;;;;;49.75;40.50;;;;;5.70;67.88;102548.81;5054558;28;45448;-57
2022/01/27 10:04:07;;;;;;;;;47.40;39.20;;;;;5.74;67.92;102547.56;5053793;28;45406;-56
2022/01/27 10:06:34;;;;;;;;;47.50;37.00;;;;;5.73;66.88;102543.13;5046395;28;45495;-53
2022/01/27 10:09:18;;;;;;;;;58.40;39.40;;;;;5.75;67.36;102545.69;5052591;28;45424;-57
2022/01/27 10:11:48;;;;;;;;;41.80;35.00;;;;;5.79;66.99;102548.03;5054011;28;45411;-58
2022/01/27 10:14:35;;;;;;;;;40.80;34.20;;;;;5.83;67.15;102545.88;5053801;28;46505;-56
2022/01/27 10:17:04;;;;;;;;;51.40;38.00;;;;;5.88;66.50;102548.19;5054269;28;45392;-52
2022/01/27 10:19:30;;;;;;;;;49.20;41.00;;;;;5.61;67.47;102506.06;5052228;28;45547;-54
2022/01/27 10:22:11;;;;;;;;;45.25;35.75;;;;;5.93;67.45;102549.50;5053117;28;45390;-55
2022/01/27 10:24:36;;;;;;;;;45.00;40.40;;;;;5.99;66.70;102544.50;5054244;28;46553;-51
2022/01/27 10:27:24;;;;;;;;;45.50;36.00;;;;;5.93;66.54;102554.13;5052276;28;45775;-58
2022/01/27 10:32:41;;;;;;;;;47.40;38.60;;;;;6.00;66.90;102555.28;5053567;28;45758;-55
2022/01/27 10:35:07;;;;;;;;;44.20;36.00;;;;;5.99;66.91;102552.69;5070018;28;45653;-57
2022/01/27 10:38:06;;;;;;;;;48.40;37.00;;;;;6.05;66.25;102561.22;5054771;28;45468;-57
2022/01/27 10:40:47;;;;;;;;;42.20;36.40;;;;;6.01;66.96;102550.69;5033241;28;45404;-56
2022/01/27 10:43:15;;;;;;;;;43.60;38.80;;;;;5.97;66.98;102541.91;5033658;28;45372;-55
2022/01/27 10:46:15;;;;;;;;;52.40;40.00;;;;;6.00;66.90;102538.06;5034091;28;45350;-56
2022/01/27 10:48:51;;;;;;;;;55.80;39.60;;;;;5.90;66.49;102510.75;5033531;28;45321;-55
2022/01/27 10:51:23;;;;;;;;;40.80;35.00;;;;;5.97;67.04;102525.56;5033657;28;45416;-57
2022/01/27 10:53:57;;;;;;;;;46.80;38.80;;;;;6.00;66.67;102527.16;5033602;28;45428;-54
2022/01/27 10:56:27;;;;;;;;;49.60;40.40;;;;;6.00;66.85;102544.38;5034666;28;46825;-55
2022/01/27 10:58:54;;;;;;;;;53.00;39.60;;;;;6.03;67.12;102532.38;5000853;28;45810;-53
2022/01/27 11:01:23;;;;;;;;;48.20;35.20;;;;;6.02;67.57;102536.06;5034606;28;45355;-57
2022/01/27 11:03:51;;;;;;;;;52.80;40.20;;;;;6.02;66.70;102536.06;5034726;28;45321;-56
2022/01/27 11:06:16;;;;;;;;;46.80;40.40;;;;;6.00;67.59;102533.47;5034215;28;45406;-58
2022/01/27 11:08:42;;;;;;;;;52.50;41.25;;;;;6.00;66.93;102533.47;5033336;28;45457;-56
2022/01/27 11:11:08;;;;;;;;;49.20;40.60;;;;;5.81;67.79;102501.53;5034602;28;45494;-56
2022/01/27 11:13:35;;;;;;;;;55.25;40.75;;;;;6.02;67.17;102545.13;5034607;28;45488;-57
2022/01/27 11:16:03;;;;;;;;;50.00;41.40;;;;;6.08;67.21;102538.25;5032836;28;47980;-59
2022/01/27 11:18:29;;;;;;;;;51.40;38.60;;;;;5.90;67.11;102519.81;5033011;28;45419;-58
2022/01/27 11:23:46;;;;;;;;;40.00;35.00;;;;;5.73;67.22;102487.75;5033600;28;45656;-59
2022/01/27 11:26:08;;;;;;;;;47.60;37.80;;;;;5.94;67.53;102512.22;5015399;28;45658;-57
2022/01/27 11:28:34;;;;;;;;;48.20;37.60;;;;;5.97;67.02;102531.88;5017572;28;45620;-54
2022/01/27 11:31:09;;;;;;;;;51.50;39.75;;;;;6.12;67.30;102544.31;5037944;28;45428;-56
2022/01/27 11:33:35;;;;;;;;;51.20;39.80;;;;;5.96;67.60;102502.91;5041345;28;45948;-59
2022/01/27 11:36:12;;;;;;;;;57.80;43.40;;;;;6.15;67.79;102530.41;5052622;27;45699;-57
2022/01/27 11:38:39;;;;;;;;;53.40;40.60;;;;;6.17;67.36;102529.25;5037998;28;45733;-62
2022/01/27 11:41:05;;;;;;;;;52.00;36.00;;;;;6.19;67.32;102519.06;5052425;28;45868;-57
2022/01/27 11:43:33;;;;;;;;;50.25;34.50;;;;;6.21;66.92;102518.94;5054352;28;45447;-55
2022/01/27 11:46:32;;;;;;;;;56.80;40.20;;;;;6.24;67.68;102522.25;5053828;28;45995;-61
2022/01/27 11:48:57;;;;;;;;;52.80;41.60;;;;;6.28;67.41;102511.03;5054118;28;45470;-64
2022/01/27 11:51:23;;;;;;;;;44.50;36.00;;;;;6.29;67.32;102508.19;5051776;28;45459;-56
2022/01/27 11:53:49;;;;;;;;;51.00;41.75;;;;;6.20;66.81;102482.63;5052652;28;45517;-60
2022/01/27 11:56:24;;;;;;;;;49.25;41.25;;;;;6.37;67.48;102494.69;5053112;28;45422;-57
2022/01/27 11:58:52;;;;;;;;;51.20;42.00;;;;;6.45;66.95;102493.16;5053633;28;45689;-58
2022/01/27 12:01:34;;;;;;;;;50.40;42.40;;;;;6.47;67.11;102480.22;5035385;28;45481;-57
2022/01/27 12:04:06;;;;;;;;;40.40;38.40;;;;;6.55;66.77;102494.03;5052340;28;45800;-57
2022/01/27 12:06:36;;;;;;;;;39.20;30.20;;;;;6.50;66.86;102480.81;5051645;28;45868;-56
2022/01/27 12:09:17;;;;;;;;;53.60;37.20;;;;;6.63;66.79;102494.16;5035303;28;45601;-53
2022/01/27 12:11:53;;;;;;;;;45.40;38.80;;;;;6.45;66.86;102464.00;5051769;28;45418;-56
2022/01/27 12:14:24;;;;;;;;;48.00;38.80;;;;;6.61;66.67;102481.66;5053313;28;45558;-59